createdAt,value
2023-05-03T00:01:31.025Z,12.84
2023-05-03T00:03:58.715Z,12.72
2023-05-03T00:06:26.869Z,12.54
2023-05-03T00:08:54.719Z,12.19
2023-05-03T00:11:22.465Z,11.82
2023-05-03T00:13:50.165Z,11.42
2023-05-03T00:16:19.241Z,11.69
2023-05-03T00:18:49.071Z,11.68
2023-05-03T00:21:17.391Z,11.52
2023-05-03T00:23:45.133Z,11.55
2023-05-03T00:26:12.937Z,11.38
2023-05-03T00:28:41.608Z,11.09
2023-05-03T00:31:10.137Z,11.06
2023-05-03T00:33:38.113Z,11.14
2023-05-03T00:36:13.165Z,10.97
2023-05-03T00:38:41.577Z,10.88
2023-05-03T00:41:13.238Z,10.87
2023-05-03T00:43:40.944Z,10.95
2023-05-03T00:46:16.650Z,10.89
2023-05-03T00:48:46.644Z,10.79
2023-05-03T00:51:15.088Z,11.02
2023-05-03T00:53:43.375Z,11.16
2023-05-03T00:56:14.254Z,11.07
2023-05-03T00:58:42.093Z,11.33
2023-05-03T01:01:09.825Z,11.38
2023-05-03T01:03:41.339Z,11.47
2023-05-03T01:06:35.323Z,11.38
2023-05-03T01:09:05.462Z,11.18
2023-05-03T01:11:52.201Z,11.42
2023-05-03T01:14:41.866Z,11.49
2023-05-03T01:17:12.103Z,11.50
2023-05-03T01:19:49.008Z,11.80
2023-05-03T01:22:44.775Z,11.91
2023-05-03T01:25:13.435Z,11.97
2023-05-03T01:27:41.491Z,12.17
2023-05-03T01:30:10.496Z,12.20
2023-05-03T01:33:00.392Z,12.89
2023-05-03T01:35:42.513Z,12.73
2023-05-03T01:38:10.615Z,12.49
2023-05-03T01:40:45.624Z,12.28
2023-05-03T01:43:14.214Z,11.89
2023-05-03T01:45:42.394Z,11.46
2023-05-03T01:48:19.688Z,11.71
2023-05-03T01:50:47.449Z,11.46
2023-05-03T01:53:15.305Z,11.57
2023-05-03T01:55:43.881Z,11.92
2023-05-03T01:58:12.739Z,12.29
2023-05-03T02:00:40.508Z,12.29
2023-05-03T02:03:08.447Z,12.59
2023-05-03T02:05:36.327Z,12.07
2023-05-03T02:08:04.153Z,11.99
2023-05-03T02:10:31.946Z,12.48
2023-05-03T02:13:00.053Z,12.28
2023-05-03T02:15:27.849Z,12.58
2023-05-03T02:17:58.674Z,12.54
2023-05-03T02:20:26.540Z,12.66
2023-05-03T02:22:54.257Z,13.17
2023-05-03T02:25:22.062Z,13.57
2023-05-03T02:27:49.840Z,13.70
2023-05-03T02:30:17.631Z,13.55
2023-05-03T02:32:45.447Z,13.63
2023-05-03T02:35:13.324Z,13.68
2023-05-03T02:37:41.103Z,13.63
2023-05-03T02:40:12.542Z,13.71
2023-05-03T02:42:41.504Z,13.76
2023-05-03T02:45:10.031Z,13.49
2023-05-03T02:47:37.940Z,13.75
2023-05-03T02:50:07.865Z,13.83
2023-05-03T02:52:39.408Z,13.81
2023-05-03T02:55:07.488Z,13.72
2023-05-03T02:57:36.283Z,13.59
2023-05-03T03:00:06.786Z,13.63
2023-05-03T03:02:34.952Z,13.65
2023-05-03T03:05:02.837Z,13.73
2023-05-03T03:07:30.648Z,13.70
2023-05-03T03:09:59.106Z,13.46
2023-05-03T03:12:28.968Z,13.43
2023-05-03T03:14:57.230Z,13.39
2023-05-03T03:17:26.183Z,13.33
2023-05-03T03:19:54.291Z,13.31
2023-05-03T03:22:22.082Z,13.36
2023-05-03T03:24:49.803Z,13.36
2023-05-03T03:27:17.682Z,13.29
2023-05-03T03:29:45.544Z,13.07
2023-05-03T03:32:15.504Z,13.19
2023-05-03T03:34:43.605Z,13.31
2023-05-03T03:37:11.687Z,12.88
2023-05-03T03:39:42.392Z,12.14
2023-05-03T03:42:11.403Z,12.61
2023-05-03T03:44:39.271Z,12.93
2023-05-03T03:47:08.348Z,12.57
2023-05-03T03:49:36.271Z,12.58
2023-05-03T03:52:04.221Z,12.78
2023-05-03T03:54:34.741Z,12.77
2023-05-03T03:57:03.760Z,12.10
2023-05-03T03:59:31.468Z,12.44
2023-05-03T04:02:00.426Z,12.23
2023-05-03T04:04:28.350Z,12.19
2023-05-03T04:06:57.199Z,11.76
2023-05-03T04:09:27.615Z,12.05
2023-05-03T04:11:55.641Z,12.03
2023-05-03T04:14:24.050Z,11.57
2023-05-03T04:16:53.790Z,11.92
2023-05-03T04:19:22.776Z,12.32
2023-05-03T04:21:51.091Z,12.07
2023-05-03T04:24:21.415Z,12.15
2023-05-03T04:26:51.654Z,12.19
2023-05-03T04:29:27.214Z,12.58
2023-05-03T04:31:55.118Z,12.65
2023-05-03T04:34:23.512Z,12.63
2023-05-03T04:36:54.692Z,12.09
2023-05-03T04:39:23.403Z,12.18
2023-05-03T04:41:51.256Z,12.37
2023-05-03T04:44:19.491Z,12.59
2023-05-03T04:46:51.158Z,12.53
2023-05-03T04:49:19.520Z,12.20
2023-05-03T04:51:47.320Z,12.69
2023-05-03T04:54:15.346Z,12.65
2023-05-03T04:56:43.108Z,12.58
2023-05-03T04:59:16.372Z,12.84
2023-05-03T05:01:44.456Z,12.70
2023-05-03T05:04:12.560Z,12.63
2023-05-03T05:06:45.271Z,12.57
2023-05-03T05:09:27.480Z,12.69
2023-05-03T05:11:57.690Z,12.51
2023-05-03T05:14:30.261Z,12.57
2023-05-03T05:16:58.706Z,12.67
2023-05-03T05:19:27.405Z,12.85
2023-05-03T05:21:55.708Z,12.58
2023-05-03T05:24:28.149Z,12.78
2023-05-03T05:26:56.779Z,12.69
2023-05-03T05:29:25.155Z,12.38
2023-05-03T05:31:53.423Z,12.73
2023-05-03T05:34:21.730Z,12.62
2023-05-03T05:36:52.258Z,12.58
2023-05-03T05:39:23.586Z,11.92
2023-05-03T05:41:52.076Z,11.18
2023-05-03T05:44:20.004Z,10.58
2023-05-03T05:46:50.021Z,11.17
2023-05-03T05:49:19.620Z,11.63
2023-05-03T05:51:47.428Z,11.92
2023-05-03T05:54:16.294Z,11.90
2023-05-03T05:56:45.307Z,12.10
2023-05-03T05:59:14.026Z,12.13
2023-05-03T06:01:45.990Z,12.18
2023-05-03T06:04:16.342Z,11.93
2023-05-03T06:06:45.205Z,12.36
2023-05-03T06:09:24.370Z,12.03
2023-05-03T06:11:56.286Z,11.97
2023-05-03T06:14:26.214Z,11.81
2023-05-03T06:16:54.768Z,11.67
2023-05-03T06:19:24.492Z,11.61
2023-05-03T06:21:53.112Z,11.45
2023-05-03T06:24:21.904Z,11.18
2023-05-03T06:26:53.347Z,10.97
2023-05-03T06:29:21.624Z,11.20
2023-05-03T06:31:49.402Z,11.49
2023-05-03T06:34:20.339Z,11.76
2023-05-03T06:36:49.490Z,11.65
2023-05-03T06:39:19.235Z,11.79
2023-05-03T06:41:46.960Z,11.90
2023-05-03T06:44:14.897Z,11.91
2023-05-03T06:46:42.930Z,12.01
2023-05-03T06:49:11.006Z,12.01
2023-05-03T06:51:38.883Z,11.74
2023-05-03T06:54:07.080Z,11.97
2023-05-03T06:56:34.868Z,12.35
2023-05-03T06:59:03.610Z,12.41
2023-05-03T07:01:32.138Z,12.39
2023-05-03T07:04:00.142Z,12.34
2023-05-03T07:06:28.148Z,12.00
2023-05-03T07:08:55.962Z,12.23
2023-05-03T07:11:26.495Z,12.36
2023-05-03T07:13:54.386Z,12.37
2023-05-03T07:16:22.277Z,12.60
2023-05-03T07:18:50.127Z,12.42
2023-05-03T07:21:17.902Z,12.13
2023-05-03T07:23:45.749Z,12.18
2023-05-03T07:26:13.441Z,12.43
2023-05-03T07:28:41.367Z,12.45
2023-05-03T07:31:09.104Z,12.55
2023-05-03T07:33:37.777Z,12.37
2023-05-03T07:36:05.838Z,12.63
2023-05-03T07:38:34.377Z,12.62
2023-05-03T07:41:02.130Z,12.09
2023-05-03T07:43:30.783Z,11.97
2023-05-03T07:45:58.550Z,12.74
2023-05-03T07:48:27.004Z,12.72
2023-05-03T07:50:54.748Z,13.00
2023-05-03T07:53:22.494Z,12.83
2023-05-03T07:55:54.304Z,12.92
2023-05-03T07:58:31.417Z,13.02
2023-05-03T08:01:07.089Z,13.17
2023-05-03T08:03:35.001Z,13.31
2023-05-03T08:06:02.971Z,13.24
2023-05-03T08:08:32.304Z,13.21
2023-05-03T08:11:00.106Z,13.30
2023-05-03T08:13:27.963Z,13.50
2023-05-03T08:15:55.970Z,13.63
2023-05-03T08:18:24.523Z,13.75
2023-05-03T08:20:52.646Z,13.62
2023-05-03T08:23:21.909Z,13.67
2023-05-03T08:25:50.231Z,13.88
2023-05-03T08:28:18.191Z,13.87
2023-05-03T08:30:46.019Z,13.41
2023-05-03T08:33:13.786Z,13.51
2023-05-03T08:35:42.378Z,14.11
2023-05-03T08:38:10.153Z,14.23
2023-05-03T08:40:40.122Z,14.37
2023-05-03T08:43:09.874Z,14.08
2023-05-03T08:45:37.785Z,14.04
2023-05-03T08:48:06.882Z,13.95
2023-05-03T08:50:42.042Z,13.70
2023-05-03T08:53:10.710Z,14.45
2023-05-03T08:55:38.573Z,14.54
2023-05-03T08:58:13.143Z,14.75
2023-05-03T09:00:45.262Z,14.95
2023-05-03T09:03:13.467Z,14.73
2023-05-03T09:05:44.170Z,15.16
2023-05-03T09:08:12.932Z,15.40
2023-05-03T09:10:41.741Z,15.35
2023-05-03T09:13:09.998Z,15.04
2023-05-03T09:15:38.018Z,14.72
2023-05-03T09:18:12.846Z,15.46
2023-05-03T09:20:41.868Z,16.12
2023-05-03T09:23:09.883Z,16.29
2023-05-03T09:25:44.511Z,16.29
2023-05-03T09:28:13.581Z,16.53
2023-05-03T09:30:42.221Z,16.31
2023-05-03T09:33:11.549Z,16.30
2023-05-03T09:35:39.613Z,16.10
2023-05-03T09:38:07.847Z,16.22
2023-05-03T09:40:35.654Z,17.18
2023-05-03T09:43:11.314Z,17.00
2023-05-03T09:45:39.258Z,17.24
2023-05-03T09:48:07.577Z,17.34
2023-05-03T09:50:36.634Z,17.61
2023-05-03T09:53:05.232Z,17.10
2023-05-03T09:55:37.516Z,17.65
2023-05-03T09:58:08.555Z,17.68
2023-05-03T10:00:40.598Z,18.50
2023-05-03T10:03:12.446Z,18.20
2023-05-03T10:05:49.805Z,17.45
2023-05-03T10:08:42.811Z,18.44
2023-05-03T10:11:10.963Z,18.12
2023-05-03T10:13:38.705Z,17.89
2023-05-03T10:16:08.395Z,18.21
2023-05-03T10:18:39.282Z,19.19
2023-05-03T10:21:09.953Z,19.63
2023-05-03T10:23:41.857Z,19.09
2023-05-03T10:26:11.497Z,19.50
2023-05-03T10:28:39.395Z,19.28
2023-05-03T10:31:07.988Z,18.60
2023-05-03T10:33:35.749Z,18.73
2023-05-03T10:36:07.545Z,19.04
2023-05-03T10:38:35.403Z,19.24
2023-05-03T10:41:03.966Z,19.75
2023-05-03T10:43:31.672Z,19.46
2023-05-03T10:46:00.697Z,19.17
2023-05-03T10:48:28.999Z,18.81
2023-05-03T10:50:57.274Z,19.19
2023-05-03T10:53:38.860Z,18.56
2023-05-03T10:56:13.136Z,19.13
2023-05-03T10:58:44.529Z,19.40
2023-05-03T11:01:13.589Z,19.42
2023-05-03T11:03:46.518Z,19.45
2023-05-03T11:06:35.923Z,19.56
2023-05-03T11:09:08.277Z,19.18
2023-05-03T11:11:37.235Z,19.59
2023-05-03T11:14:05.476Z,19.75
2023-05-03T11:16:33.374Z,19.87
2023-05-03T11:19:01.751Z,19.71
2023-05-03T11:21:29.604Z,19.72
2023-05-03T11:23:58.677Z,19.81
2023-05-03T11:26:27.694Z,19.90
2023-05-03T11:28:55.407Z,19.67
2023-05-03T11:31:23.591Z,19.99
2023-05-03T11:33:51.562Z,19.77
2023-05-03T11:36:19.282Z,20.11
2023-05-03T11:38:47.248Z,19.08
2023-05-03T11:41:16.991Z,19.52
2023-05-03T11:43:45.645Z,19.63
2023-05-03T11:46:27.037Z,19.87
2023-05-03T11:48:55.687Z,19.85
2023-05-03T11:51:23.669Z,20.01
2023-05-03T11:53:51.897Z,20.39
2023-05-03T11:56:20.883Z,20.13
2023-05-03T11:58:57.474Z,20.23
2023-05-03T12:01:26.840Z,19.63
2023-05-03T12:04:02.669Z,19.32
2023-05-03T12:06:36.064Z,19.82
2023-05-03T12:09:05.413Z,19.58
2023-05-03T12:11:44.142Z,19.81
2023-05-03T12:14:12.758Z,19.95
2023-05-03T12:16:51.826Z,19.94
2023-05-03T12:19:38.935Z,19.55
2023-05-03T12:22:24.032Z,19.43
2023-05-03T12:24:54.180Z,20.14
2023-05-03T12:27:23.760Z,20.14
2023-05-03T12:29:52.056Z,20.26
2023-05-03T12:32:22.952Z,19.68
2023-05-03T12:34:52.196Z,20.19
2023-05-03T12:37:22.188Z,20.28
2023-05-03T12:40:00.585Z,20.84
2023-05-03T12:45:12.018Z,19.65
2023-05-03T12:47:44.117Z,20.08
2023-05-03T12:50:12.986Z,19.43
2023-05-03T12:52:44.976Z,20.28
2023-05-03T12:55:17.840Z,20.48
2023-05-03T12:57:54.791Z,19.87
2023-05-03T13:00:36.146Z,20.20
2023-05-03T13:05:37.020Z,20.35
2023-05-03T13:10:36.287Z,20.17
2023-05-03T13:13:04.266Z,20.29
2023-05-03T13:15:32.075Z,20.04
2023-05-03T13:18:01.872Z,20.02
2023-05-03T13:20:29.745Z,20.07
2023-05-03T13:22:57.629Z,19.82
2023-05-03T13:25:26.123Z,19.14
2023-05-03T13:27:54.587Z,19.36
2023-05-03T13:30:23.318Z,19.17
2023-05-03T13:32:52.034Z,19.25
2023-05-03T13:35:20.316Z,19.59
2023-05-03T13:37:48.129Z,19.48
2023-05-03T13:40:15.880Z,19.44
2023-05-03T13:42:43.711Z,19.46
2023-05-03T13:45:13.629Z,19.06
2023-05-03T13:48:04.352Z,19.44
2023-05-03T13:50:30.732Z,18.91
2023-05-03T13:52:58.604Z,19.02
2023-05-03T13:55:26.838Z,18.53
2023-05-03T13:57:54.697Z,18.95
2023-05-03T14:00:23.113Z,18.88
2023-05-03T14:02:51.957Z,18.80
2023-05-03T14:05:19.857Z,18.72
2023-05-03T14:07:47.759Z,18.59
2023-05-03T14:10:15.595Z,18.47
2023-05-03T14:12:44.945Z,18.10
2023-05-03T14:15:13.054Z,18.04
2023-05-03T14:17:41.730Z,17.91
2023-05-03T14:20:12.464Z,17.68
2023-05-03T14:22:40.519Z,17.41
2023-05-03T14:25:08.687Z,17.13
2023-05-03T14:27:36.707Z,17.47
2023-05-03T14:30:05.440Z,17.52
2023-05-03T14:32:33.432Z,17.26
2023-05-03T14:35:02.061Z,17.17
2023-05-03T14:37:30.541Z,17.29
2023-05-03T14:39:58.206Z,16.96
2023-05-03T14:42:30.288Z,16.93
2023-05-03T14:44:58.634Z,17.14
2023-05-03T14:47:26.519Z,16.80
2023-05-03T14:49:54.245Z,16.65
2023-05-03T14:52:22.675Z,16.81
2023-05-03T14:54:50.690Z,16.71
2023-05-03T14:57:18.515Z,16.54
2023-05-03T14:59:47.293Z,16.53
2023-05-03T15:02:15.105Z,16.54
2023-05-03T15:04:43.290Z,16.39
2023-05-03T15:07:11.467Z,16.46
2023-05-03T15:09:39.392Z,16.21
2023-05-03T15:12:07.511Z,15.99
2023-05-03T15:14:35.312Z,16.29
2023-05-03T15:17:03.030Z,16.27
2023-05-03T15:19:30.926Z,16.30
2023-05-03T15:21:58.979Z,15.66
2023-05-03T15:24:26.770Z,15.67
2023-05-03T15:26:54.523Z,15.78
2023-05-03T15:29:22.589Z,16.00
2023-05-03T15:31:50.398Z,15.97
2023-05-03T15:34:18.194Z,15.82
2023-05-03T15:36:46.114Z,16.03
2023-05-03T15:39:14.157Z,16.02
2023-05-03T15:41:41.864Z,15.72
2023-05-03T15:44:09.876Z,15.58
2023-05-03T15:46:38.292Z,15.62
2023-05-03T15:49:07.605Z,15.80
2023-05-03T15:51:35.421Z,15.96
2023-05-03T15:54:03.193Z,15.90
2023-05-03T15:56:31.311Z,15.98
2023-05-03T15:58:59.137Z,15.73
2023-05-03T16:01:26.850Z,15.83
2023-05-03T16:03:54.693Z,15.93
2023-05-03T16:06:23.221Z,15.51
2023-05-03T16:08:51.142Z,15.77
2023-05-03T16:11:19.369Z,15.57
2023-05-03T16:13:47.139Z,15.72
2023-05-03T16:16:14.931Z,15.45
2023-05-03T16:18:42.815Z,15.60
2023-05-03T16:21:11.427Z,15.71
2023-05-03T16:23:39.184Z,15.76
2023-05-03T16:26:14.424Z,15.67
2023-05-03T16:28:42.312Z,15.75
2023-05-03T16:31:10.053Z,15.74
2023-05-03T16:33:37.840Z,15.76
2023-05-03T16:36:05.674Z,15.54
2023-05-03T16:38:33.492Z,15.57
2023-05-03T16:41:02.028Z,15.49
2023-05-03T16:43:30.069Z,15.54
2023-05-03T16:46:01.586Z,15.08
2023-05-03T16:48:29.640Z,15.20
2023-05-03T16:50:57.528Z,15.13
2023-05-03T16:53:25.343Z,15.10
2023-05-03T16:55:53.640Z,15.22
2023-05-03T16:58:21.505Z,15.31
2023-05-03T17:00:49.265Z,15.28
2023-05-03T17:03:17.434Z,15.23
2023-05-03T17:05:45.317Z,15.30
2023-05-03T17:08:13.594Z,15.31
2023-05-03T17:10:41.724Z,15.40
2023-05-03T17:13:09.986Z,15.32
2023-05-03T17:15:37.767Z,14.87
2023-05-03T17:18:05.807Z,14.99
2023-05-03T17:20:34.665Z,15.02
2023-05-03T17:23:02.397Z,14.97
2023-05-03T17:25:30.085Z,14.87
2023-05-03T17:27:57.877Z,14.93
2023-05-03T17:30:26.009Z,15.03
2023-05-03T17:32:54.213Z,15.13
2023-05-03T17:35:22.234Z,15.12
2023-05-03T17:37:49.910Z,14.60
2023-05-03T17:40:17.757Z,14.62
2023-05-03T17:42:46.923Z,14.66
2023-05-03T17:45:14.894Z,14.54
2023-05-03T17:47:42.774Z,14.33
2023-05-03T17:50:11.765Z,14.44
2023-05-03T17:52:40.667Z,14.63
2023-05-03T17:55:08.784Z,14.56
2023-05-03T17:57:37.513Z,14.24
2023-05-03T18:00:06.400Z,14.55
2023-05-03T18:02:34.470Z,14.42
2023-05-03T18:05:03.307Z,14.39
2023-05-03T18:07:31.092Z,13.29
2023-05-03T18:09:59.741Z,14.08
2023-05-03T18:12:27.668Z,14.33
2023-05-03T18:14:59.491Z,14.55
2023-05-03T18:17:27.659Z,14.41
2023-05-03T18:19:56.007Z,14.43
2023-05-03T18:22:23.828Z,14.33
2023-05-03T18:24:55.382Z,13.87
2023-05-03T18:27:23.371Z,14.08
2023-05-03T18:29:51.038Z,14.39
2023-05-03T18:32:18.782Z,14.05
2023-05-03T18:34:46.573Z,14.23
2023-05-03T18:37:14.345Z,14.19
2023-05-03T18:39:42.750Z,14.15
2023-05-03T18:42:10.708Z,14.30
2023-05-03T18:44:39.718Z,14.35
2023-05-03T18:47:10.248Z,14.23
2023-05-03T18:49:38.206Z,14.05
2023-05-03T18:52:05.953Z,14.12
2023-05-03T18:54:33.864Z,14.29
2023-05-03T18:57:02.780Z,14.33
2023-05-03T18:59:30.575Z,14.25
2023-05-03T19:01:58.470Z,14.36
2023-05-03T19:04:26.309Z,13.92
2023-05-03T19:06:54.031Z,14.21
2023-05-03T19:09:21.856Z,13.90
2023-05-03T19:11:50.326Z,13.11
2023-05-03T19:14:18.671Z,12.91
2023-05-03T19:16:46.432Z,13.31
2023-05-03T19:19:14.249Z,13.32
2023-05-03T19:21:43.732Z,13.29
2023-05-03T19:24:14.167Z,13.67
2023-05-03T19:26:42.121Z,13.82
2023-05-03T19:29:09.905Z,13.83
2023-05-03T19:31:37.783Z,13.84
2023-05-03T19:34:07.948Z,13.83
2023-05-03T19:36:35.682Z,13.99
2023-05-03T19:39:03.696Z,13.84
2023-05-03T19:41:31.432Z,13.89
2023-05-03T19:43:59.333Z,13.26
2023-05-03T19:46:28.636Z,13.60
2023-05-03T19:48:56.488Z,13.51
2023-05-03T19:51:24.244Z,13.63
2023-05-03T19:53:52.033Z,13.92
2023-05-03T19:56:21.648Z,13.71
2023-05-03T19:58:50.756Z,13.69
2023-05-03T20:01:18.683Z,12.89
2023-05-03T20:03:47.207Z,12.95
2023-05-03T20:06:15.037Z,13.31
2023-05-03T20:08:42.808Z,13.22
2023-05-03T20:11:10.588Z,13.32
2023-05-03T20:13:38.426Z,13.38
2023-05-03T20:16:06.778Z,13.45
2023-05-03T20:18:34.591Z,13.49
2023-05-03T20:21:03.812Z,13.52
2023-05-03T20:23:32.444Z,13.21
2023-05-03T20:26:01.757Z,12.85
2023-05-03T20:28:31.923Z,12.84
2023-05-03T20:30:59.710Z,12.77
2023-05-03T20:33:27.486Z,12.87
2023-05-03T20:35:55.316Z,12.14
2023-05-03T20:38:23.088Z,11.86
2023-05-03T20:40:51.088Z,12.07
2023-05-03T20:43:18.790Z,12.51
2023-05-03T20:45:47.009Z,12.59
2023-05-03T20:48:14.848Z,12.67
2023-05-03T20:50:43.577Z,12.61
2023-05-03T20:53:11.442Z,12.02
2023-05-03T20:55:39.281Z,12.15
2023-05-03T20:58:07.046Z,12.28
2023-05-03T21:00:34.910Z,11.55
2023-05-03T21:03:02.730Z,12.01
2023-05-03T21:05:30.705Z,11.79
2023-05-03T21:07:58.515Z,12.13
2023-05-03T21:10:26.471Z,12.12
2023-05-03T21:12:54.208Z,11.63
2023-05-03T21:15:21.998Z,11.79
2023-05-03T21:17:49.863Z,11.71
2023-05-03T21:20:17.686Z,11.89
2023-05-03T21:22:45.613Z,11.77
2023-05-03T21:25:13.440Z,11.43
2023-05-03T21:27:41.491Z,11.31
2023-05-03T21:30:09.653Z,11.55
2023-05-03T21:32:37.371Z,11.11
2023-05-03T21:35:05.616Z,11.22
2023-05-03T21:37:33.369Z,11.31
2023-05-03T21:40:02.651Z,11.28
2023-05-03T21:42:30.878Z,11.32
2023-05-03T21:44:59.109Z,10.94
2023-05-03T21:47:27.774Z,11.30
2023-05-03T21:49:55.726Z,11.12
2023-05-03T21:52:23.496Z,11.31
2023-05-03T21:54:52.172Z,11.19
2023-05-03T21:57:19.860Z,11.41
2023-05-03T21:59:47.676Z,11.26
2023-05-03T22:02:15.413Z,11.49
2023-05-03T22:04:43.621Z,11.38
2023-05-03T22:07:11.364Z,11.31
2023-05-03T22:09:39.188Z,11.45
2023-05-03T22:12:22.698Z,11.39
2023-05-03T22:14:52.905Z,11.55
2023-05-03T22:17:21.084Z,11.47
2023-05-03T22:19:49.108Z,11.31
2023-05-03T22:22:16.793Z,11.29
2023-05-03T22:24:44.561Z,11.27
2023-05-03T22:27:12.246Z,11.10
2023-05-03T22:29:40.055Z,11.26
2023-05-03T22:32:07.831Z,11.27
2023-05-03T22:34:36.244Z,11.29
2023-05-03T22:37:03.970Z,11.39
2023-05-03T22:39:32.254Z,11.23
2023-05-03T22:42:00.052Z,10.94
2023-05-03T22:44:27.990Z,11.26
2023-05-03T22:46:55.916Z,11.27
2023-05-03T22:49:23.943Z,11.34
2023-05-03T22:51:51.989Z,11.35
2023-05-03T22:54:20.194Z,10.88
2023-05-03T22:56:48.014Z,11.09
2023-05-03T22:59:15.804Z,11.28
2023-05-03T23:01:44.136Z,11.43
2023-05-03T23:04:12.343Z,11.37
2023-05-03T23:06:40.045Z,10.79
2023-05-03T23:09:07.858Z,10.93
2023-05-03T23:11:35.565Z,11.21
2023-05-03T23:14:03.397Z,11.29
2023-05-03T23:16:32.060Z,11.25
2023-05-03T23:18:59.964Z,10.89
2023-05-03T23:21:27.740Z,11.18
2023-05-03T23:23:55.482Z,11.26
2023-05-03T23:26:23.310Z,11.41
2023-05-03T23:28:51.954Z,11.51
2023-05-03T23:31:20.128Z,11.54
2023-05-03T23:33:48.401Z,11.51
2023-05-03T23:36:16.435Z,11.43
2023-05-03T23:38:44.327Z,11.45
2023-05-03T23:41:12.158Z,11.33
2023-05-03T23:43:39.971Z,10.98
2023-05-03T23:46:07.788Z,11.12
2023-05-03T23:48:35.601Z,11.20
2023-05-03T23:51:03.486Z,10.96
2023-05-03T23:53:31.188Z,11.14
2023-05-03T23:55:58.957Z,11.19
2023-05-03T23:58:27.483Z,11.35
